Time;durP1;ratioP1;P1;durP2;ratioP2;P2;SDS_P1;SDS_P2;PMS_P1;PMS_P2;Temp;Humidity;BMP_temperature;BMP_pressure;BME280_temperature;BME280_humidity;BME280_pressure;Samples;Min_cycle;Max_cycle;Signal;HPM_P1;HPM_P2
2021/10/28 00:15:26;;;;;;;10.90;6.50;;;;;;;6.93;74.40;98644.50;5053240;28;20040;-63
2021/10/28 00:18:07;;;;;;;9.05;6.32;;;;;;;6.96;74.63;98629.03;5070462;28;20051;-64
2021/10/28 00:20:34;;;;;;;17.48;7.07;;;;;;;7.02;74.23;98629.94;5072714;28;20036;-64
2021/10/28 00:23:02;;;;;;;12.18;6.75;;;;;;;6.95;74.42;98627.44;5039607;28;20048;-63
2021/10/28 00:25:28;;;;;;;13.20;6.97;;;;;;;6.93;74.88;98618.97;5055816;28;20075;-65
2021/10/28 00:27:55;;;;;;;12.80;7.25;;;;;;;6.98;74.42;98623.53;5056364;28;20055;-64
2021/10/28 00:30:20;;;;;;;12.93;6.57;;;;;;;7.01;74.30;98610.69;5074094;28;20048;-63
2021/10/28 00:32:47;;;;;;;11.98;6.53;;;;;;;7.10;74.14;98603.22;5074297;28;20094;-64
2021/10/28 00:35:13;;;;;;;12.57;6.18;;;;;;;7.15;74.36;98602.53;5056122;28;20036;-64
2021/10/28 00:37:39;;;;;;;16.67;7.78;;;;;;;7.18;73.80;98594.16;5073752;28;20135;-65
2021/10/28 00:40:08;;;;;;;13.65;6.97;;;;;;;7.14;74.10;98591.16;5073912;28;20037;-62
2021/10/28 00:42:37;;;;;;;10.13;6.55;;;;;;;7.15;74.22;98584.09;5073669;28;20139;-64
2021/10/28 00:45:05;;;;;;;13.05;7.43;;;;;;;7.16;73.88;98573.28;5055858;28;20138;-63
2021/10/28 00:47:33;;;;;;;10.15;6.97;;;;;;;7.21;73.57;98576.03;5072323;28;20040;-64
2021/10/28 00:50:05;;;;;;;14.95;8.00;;;;;;;7.23;73.88;98573.16;5073908;28;20032;-63
2021/10/28 00:52:33;;;;;;;13.55;7.50;;;;;;;7.26;73.61;98570.88;5073480;28;20080;-63
2021/10/28 00:54:59;;;;;;;15.38;7.13;;;;;;;7.30;73.82;98559.84;5073639;28;20041;-63
2021/10/28 00:57:25;;;;;;;12.75;7.35;;;;;;;7.34;73.85;98563.59;5055482;28;20063;-64
2021/10/28 00:59:50;;;;;;;12.00;7.32;;;;;;;7.36;73.61;98564.97;5073360;28;20044;-64
2021/10/28 01:02:16;;;;;;;14.52;7.30;;;;;;;7.30;73.68;98536.91;5073330;28;20123;-64
2021/10/28 01:04:42;;;;;;;12.45;7.03;;;;;;;7.26;73.82;98536.59;5073385;28;20135;-63
2021/10/28 01:07:08;;;;;;;12.52;7.35;;;;;;;7.31;73.57;98535.88;5039195;28;20135;-65
2021/10/28 01:09:34;;;;;;;15.25;6.97;;;;;;;7.33;73.32;98533.03;5055557;28;20090;-62
2021/10/28 01:12:00;;;;;;;14.68;7.70;;;;;;;7.32;73.87;98529.56;5071783;28;20041;-64
2021/10/28 01:14:26;;;;;;;10.10;6.70;;;;;;;7.32;73.65;98523.50;5038910;28;20426;-63
2021/10/28 01:16:55;;;;;;;12.35;7.45;;;;;;;7.39;73.46;98521.53;5055553;28;20410;-63
2021/10/28 01:19:22;;;;;;;14.63;8.63;;;;;;;7.37;73.55;98508.56;5055280;28;20046;-64
2021/10/28 01:21:49;;;;;;;12.82;8.07;;;;;;;7.34;73.62;98501.13;5072688;28;20831;-64
2021/10/28 01:24:15;;;;;;;15.52;8.13;;;;;;;7.42;73.35;98500.75;5038690;28;20497;-63
2021/10/28 01:26:41;;;;;;;17.00;7.85;;;;;;;7.41;73.67;98500.97;5072642;28;20071;-64
2021/10/28 01:29:07;;;;;;;15.88;8.32;;;;;;;7.38;73.99;98497.00;5072929;28;20044;-63
2021/10/28 01:31:34;;;;;;;14.77;8.30;;;;;;;7.42;74.52;98507.84;5072830;28;20037;-63
2021/10/28 01:34:02;;;;;;;13.43;8.55;;;;;;;7.41;74.13;98495.69;5072736;28;20053;-63
2021/10/28 01:36:28;;;;;;;12.63;8.07;;;;;;;7.42;74.27;98492.84;5054781;28;20055;-62
2021/10/28 01:38:54;;;;;;;15.27;8.32;;;;;;;7.38;74.89;98490.91;5054962;28;20082;-63
2021/10/28 01:41:21;;;;;;;14.30;7.88;;;;;;;7.40;74.87;98480.91;5072422;28;20517;-63
2021/10/28 01:43:46;;;;;;;12.93;8.05;;;;;;;7.36;74.92;98483.25;5072725;28;20048;-65
2021/10/28 01:46:13;;;;;;;15.88;8.80;;;;;;;7.30;75.07;98473.66;5072680;28;20099;-63
2021/10/28 01:48:40;;;;;;;13.88;9.07;;;;;;;7.31;75.30;98479.72;5072524;28;20051;-63
2021/10/28 01:51:10;;;;;;;19.63;8.80;;;;;;;7.28;75.17;98465.97;5037736;28;20047;-63
2021/10/28 01:53:38;;;;;;;14.93;9.15;;;;;;;7.34;75.11;98463.44;5072605;28;20121;-62
2021/10/28 01:56:05;;;;;;;14.90;8.85;;;;;;;7.33;75.33;98461.84;5072576;28;20102;-62
2021/10/28 01:58:31;;;;;;;14.05;8.10;;;;;;;7.35;75.12;98457.09;5071456;28;20040;-62
2021/10/28 02:00:57;;;;;;;13.65;8.23;;;;;;;7.38;74.94;98456.63;5072367;28;20486;-62
2021/10/28 02:03:23;;;;;;;14.18;7.82;;;;;;;7.30;75.49;98430.69;5072395;28;20569;-63
2021/10/28 02:05:49;;;;;;;14.32;7.72;;;;;;;7.28;75.55;98444.09;5072232;28;20413;-62
2021/10/28 02:08:15;;;;;;;13.50;7.70;;;;;;;7.30;76.25;98435.94;5072247;28;20098;-64
2021/10/28 02:10:41;;;;;;;12.90;8.32;;;;;;;7.31;75.94;98432.28;5072138;28;20086;-61
2021/10/28 02:13:07;;;;;;;13.05;7.80;;;;;;;7.32;75.92;98418.84;5037583;28;20109;-64
2021/10/28 02:15:33;;;;;;;12.48;8.30;;;;;;;7.26;75.75;98414.53;5054213;28;20041;-62
2021/10/28 02:18:00;;;;;;;12.70;7.70;;;;;;;7.25;75.90;98407.66;5071940;28;20049;-61
2021/10/28 02:20:26;;;;;;;12.85;8.00;;;;;;;7.22;76.18;98401.03;5053768;28;20127;-62
2021/10/28 02:22:52;;;;;;;15.95;8.48;;;;;;;7.17;76.20;98395.66;5071901;28;20144;-63
2021/10/28 02:25:18;;;;;;;15.25;8.10;;;;;;;7.16;76.30;98396.72;5071806;28;20436;-63
2021/10/28 02:27:52;;;;;;;13.48;8.15;;;;;;;7.17;76.07;98390.41;5053983;28;20075;-61
2021/10/28 02:30:20;;;;;;;13.25;8.50;;;;;;;7.22;76.29;98379.94;5072241;28;20043;-62
2021/10/28 02:32:46;;;;;;;18.13;9.02;;;;;;;7.15;76.57;98373.25;5053871;28;20040;-64
2021/10/28 02:35:11;;;;;;;17.05;9.18;;;;;;;7.09;77.58;98371.53;5071539;28;20085;-64
2021/10/28 02:37:37;;;;;;;15.57;9.10;;;;;;;7.15;77.69;98366.13;5071788;28;20048;-62
2021/10/28 02:40:05;;;;;;;16.27;9.55;;;;;;;7.15;77.25;98347.69;5071684;28;20719;-62
2021/10/28 02:42:32;;;;;;;18.60;8.65;;;;;;;7.19;76.81;98355.91;5020085;28;20049;-63
2021/10/28 02:44:57;;;;;;;14.20;9.05;;;;;;;7.17;77.10;98355.34;5053791;28;20044;-62
2021/10/28 02:47:25;;;;;;;19.33;9.85;;;;;;;7.09;77.56;98350.47;5071283;28;20106;-63
2021/10/28 02:49:51;;;;;;;16.70;10.02;;;;;;;7.08;77.76;98343.59;5071514;28;20048;-65
2021/10/28 02:52:16;;;;;;;16.63;9.80;;;;;;;7.09;77.77;98361.00;5071311;28;20041;-64
2021/10/28 02:54:42;;;;;;;24.00;10.13;;;;;;;7.14;77.58;98338.16;5071399;28;20048;-63
2021/10/28 02:57:08;;;;;;;15.75;9.25;;;;;;;7.08;77.99;98327.78;5071211;28;20051;-63
2021/10/28 02:59:34;;;;;;;15.38;9.43;;;;;;;7.19;78.10;98340.88;5053321;28;20106;-62
2021/10/28 03:02:01;;;;;;;14.95;9.23;;;;;;;7.23;77.65;98342.00;5053239;28;20044;-63
2021/10/28 03:04:27;;;;;;;14.80;9.88;;;;;;;7.17;77.60;98340.31;5071507;28;20426;-62
2021/10/28 03:06:53;;;;;;;16.40;9.82;;;;;;;7.16;78.05;98336.09;5071127;28;20315;-63
2021/10/28 03:09:21;;;;;;;16.95;10.05;;;;;;;7.13;77.58;98335.78;5071472;28;20065;-62
2021/10/28 03:11:49;;;;;;;17.27;9.65;;;;;;;7.07;78.58;98334.13;5071016;28;20044;-64
2021/10/28 03:14:18;;;;;;;15.73;10.13;;;;;;;7.06;78.27;98328.06;5053221;28;20413;-63
2021/10/28 03:27:24;;;;;;;17.83;10.13;;;;;;;7.11;78.79;98322.84;5071058;28;20063;-62
2021/10/28 03:29:50;;;;;;;15.85;9.63;;;;;;;7.15;79.04;98323.97;5071271;28;20041;-61
2021/10/28 03:32:18;;;;;;;15.77;9.52;;;;;;;7.11;78.83;98312.28;5069590;28;20083;-63
2021/10/28 03:34:45;;;;;;;16.05;9.73;;;;;;;7.11;78.83;98308.88;5070933;28;20422;-63
2021/10/28 03:48:18;;;;;;;15.98;9.95;;;;;;;7.13;79.56;98304.94;5069440;28;20051;-62
2021/10/28 04:30:25;;;;;;;14.90;9.07;;;;;;;7.37;78.66;98278.41;5056151;28;20102;-64
2021/10/28 04:32:52;;;;;;;15.55;7.90;;;;;;;7.37;78.58;98281.81;5073722;28;20139;-63
2021/10/28 04:35:19;;;;;;;14.27;8.25;;;;;;;7.38;78.93;98286.06;5073825;28;20040;-63
2021/10/28 04:37:46;;;;;;;14.13;7.43;;;;;;;7.44;78.83;98285.09;5073985;28;20139;-64
2021/10/28 04:40:13;;;;;;;14.38;8.18;;;;;;;7.47;78.45;98274.06;5073970;28;20048;-63
2021/10/28 04:42:40;;;;;;;13.05;7.78;;;;;;;7.46;78.48;98272.44;5073667;28;20051;-63
2021/10/28 04:45:06;;;;;;;15.93;7.93;;;;;;;7.39;78.67;98276.31;5073778;28;20044;-62
2021/10/28 04:47:32;;;;;;;11.68;7.68;;;;;;;7.48;78.76;98278.28;5073229;28;20048;-63
2021/10/28 04:49:58;;;;;;;12.00;7.43;;;;;;;7.47;79.26;98275.88;5055716;28;20115;-64
2021/10/28 04:52:24;;;;;;;13.30;7.70;;;;;;;7.47;79.17;98265.34;5073108;28;20074;-64
2021/10/28 04:54:50;;;;;;;14.57;7.28;;;;;;;7.46;79.26;98272.44;5055764;28;20036;-63
2021/10/28 04:57:16;;;;;;;12.85;7.35;;;;;;;7.50;78.87;98276.22;5073742;28;20052;-64
2021/10/28 04:59:42;;;;;;;12.25;7.25;;;;;;;7.55;78.97;98272.03;5073214;28;20056;-63
2021/10/28 05:02:08;;;;;;;11.35;7.45;;;;;;;7.53;79.10;98269.66;5055667;28;20052;-64
2021/10/28 05:04:34;;;;;;;11.10;6.70;;;;;;;7.54;78.86;98276.53;5055269;28;20146;-64
2021/10/28 05:06:59;;;;;;;13.70;7.43;;;;;;;7.55;79.55;98269.41;5072540;28;20524;-64
2021/10/28 05:09:29;;;;;;;12.65;6.88;;;;;;;7.65;79.18;98269.53;5073101;28;20409;-64
2021/10/28 05:11:56;;;;;;;9.32;6.43;;;;;;;7.67;79.01;98278.78;5055208;28;20541;-64
2021/10/28 05:14:22;;;;;;;10.38;5.80;;;;;;;7.73;79.00;98277.81;5055899;28;20040;-65
2021/10/28 05:16:55;;;;;;;10.63;6.50;;;;;;;7.72;79.03;98270.94;5053001;28;20544;-64
2021/10/28 05:19:21;;;;;;;8.38;5.80;;;;;;;7.84;78.67;98264.72;5067828;28;20044;-65
2021/10/28 05:21:47;;;;;;;9.35;5.82;;;;;;;7.88;78.52;98277.19;5072897;28;20055;-65
2021/10/28 05:24:13;;;;;;;8.32;5.57;;;;;;;7.88;78.65;98268.47;5072468;28;20118;-64
2021/10/28 05:26:39;;;;;;;7.28;5.47;;;;;;;7.86;78.27;98278.50;5073305;28;20070;-64
2021/10/28 05:29:05;;;;;;;7.70;5.50;;;;;;;7.89;78.68;98275.34;5072690;28;20033;-64
2021/10/28 05:31:31;;;;;;;9.88;5.57;;;;;;;7.84;78.91;98273.44;5073332;28;20044;-64
2021/10/28 05:33:56;;;;;;;10.65;5.50;;;;;;;7.86;78.54;98270.56;5072682;28;20044;-62
2021/10/28 05:36:22;;;;;;;7.72;5.22;;;;;;;7.87;78.26;98277.44;5072956;28;20093;-62
2021/10/28 05:38:48;;;;;;;9.20;5.28;;;;;;;7.90;78.97;98280.38;5072341;28;20048;-64
2021/10/28 05:41:14;;;;;;;7.80;4.75;;;;;;;7.95;78.59;98277.78;5054524;28;20044;-64
2021/10/28 05:43:40;;;;;;;9.40;5.38;;;;;;;8.01;78.70;98281.28;5072504;28;20049;-63
2021/10/28 05:46:05;;;;;;;7.50;5.30;;;;;;;8.07;78.65;98276.88;5072570;28;20041;-63
2021/10/28 05:48:31;;;;;;;6.07;4.45;;;;;;;8.03;78.76;98281.84;5072146;28;20417;-66
2021/10/28 05:50:59;;;;;;;8.13;4.72;;;;;;;8.03;78.57;98275.75;5072595;28;20041;-63
2021/10/28 05:53:24;;;;;;;5.95;4.47;;;;;;;8.01;78.96;98269.94;5071986;28;20067;-61
2021/10/28 05:55:51;;;;;;;7.03;4.70;;;;;;;8.10;78.88;98279.00;5072591;28;20498;-65
2021/10/28 05:58:17;;;;;;;8.43;5.20;;;;;;;8.06;79.58;98284.00;5053982;28;20056;-62
2021/10/28 06:00:43;;;;;;;6.25;4.32;;;;;;;8.07;78.94;98288.22;5071767;28;20037;-62
2021/10/28 06:03:12;;;;;;;9.73;4.90;;;;;;;8.10;78.59;98289.56;5052933;28;20045;-61
2021/10/28 06:05:37;;;;;;;8.63;4.78;;;;;;;8.06;79.04;98284.00;5048169;28;20150;-62
2021/10/28 06:08:04;;;;;;;7.80;4.55;;;;;;;8.12;79.23;98276.94;5067589;28;20514;-60
2021/10/28 06:10:30;;;;;;;7.88;4.28;;;;;;;8.08;79.55;98279.25;5063869;28;20064;-63
2021/10/28 06:12:59;;;;;;;5.07;3.60;;;;;;;8.13;79.94;98281.94;5069572;28;20086;-63
2021/10/28 06:15:28;;;;;;;5.85;4.43;;;;;;;8.16;79.15;98275.38;5051670;28;20068;-62
2021/10/28 06:17:57;;;;;;;5.63;4.10;;;;;;;8.18;79.68;98273.28;5067489;28;20056;-64
2021/10/28 06:20:22;;;;;;;4.68;3.40;;;;;;;8.25;78.83;98286.28;5067623;28;20044;-63
2021/10/28 06:22:49;;;;;;;6.75;3.95;;;;;;;8.22;79.09;98289.44;5051291;28;20049;-64
2021/10/28 06:25:15;;;;;;;5.68;3.67;;;;;;;8.16;79.60;98291.22;5065456;28;20120;-63
2021/10/28 06:27:41;;;;;;;5.18;3.85;;;;;;;8.14;79.96;98285.38;5068159;28;20047;-62
2021/10/28 06:30:07;;;;;;;6.47;4.32;;;;;;;8.17;80.31;98288.31;5067225;28;20036;-63
2021/10/28 06:32:34;;;;;;;5.63;3.55;;;;;;;8.30;79.67;98291.63;5069514;28;20044;-65
2021/10/28 06:35:03;;;;;;;6.30;3.72;;;;;;;8.37;80.21;98293.00;5051606;28;20045;-65
2021/10/28 06:37:29;;;;;;;5.05;3.92;;;;;;;8.35;80.33;98284.56;5069702;28;20040;-62
2021/10/28 06:39:55;;;;;;;5.80;3.83;;;;;;;8.38;79.48;98291.16;5067473;28;20040;-62
2021/10/28 06:42:20;;;;;;;6.57;4.35;;;;;;;8.41;79.71;98291.50;5067945;28;20040;-64
2021/10/28 06:44:46;;;;;;;7.47;3.65;;;;;;;8.48;80.15;98293.94;5050407;28;20036;-63
2021/10/28 06:47:12;;;;;;;4.95;3.38;;;;;;;8.47;79.56;98294.16;5068567;28;20123;-62
2021/10/28 06:49:41;;;;;;;5.68;4.10;;;;;;;8.55;79.94;98294.50;5069590;28;20438;-62
2021/10/28 06:52:10;;;;;;;5.13;3.60;;;;;;;8.58;79.44;98293.22;5052817;28;20052;-63
2021/10/28 06:54:38;;;;;;;4.40;3.65;;;;;;;8.58;79.66;98299.28;5068590;28;20127;-63
2021/10/28 07:02:37;;;;;;;5.63;3.50;;;;;;;8.63;79.25;98307.28;5068727;28;20045;-63
2021/10/28 07:05:04;;;;;;;6.43;4.32;;;;;;;8.71;79.62;98307.88;5067733;28;20138;-64
2021/10/28 07:07:32;;;;;;;5.68;3.70;;;;;;;8.74;78.97;98304.72;5068662;28;20040;-62
2021/10/28 07:10:06;;;;;;;5.68;4.00;;;;;;;8.71;79.63;98306.03;5067636;28;20044;-62
2021/10/28 07:15:08;;;;;;;6.20;4.20;;;;;;;8.83;78.99;98316.44;5069835;28;20089;-62
2021/10/28 07:28:39;;;;;;;5.43;4.32;;;;;;;9.00;78.63;98311.00;5049812;28;20056;-63
2021/10/28 07:33:55;;;;;;;6.03;4.43;;;;;;;8.94;80.58;98317.28;5050569;28;20091;-62
2021/10/28 07:58:12;;;;;;;6.13;3.90;;;;;;;9.50;79.74;98341.47;5066624;28;20634;-63
2021/10/28 08:30:14;;;;;;;5.20;2.83;;;;;;;10.10;78.22;98365.88;5067585;28;20135;-61
2021/10/28 08:32:40;;;;;;;4.88;2.72;;;;;;;10.09;78.43;98372.22;5068356;28;20044;-63
2021/10/28 08:35:07;;;;;;;3.90;3.00;;;;;;;10.19;78.28;98372.25;5067572;28;20048;-61
2021/10/28 08:37:46;;;;;;;2.88;2.60;;;;;;;10.31;78.05;98372.06;5068178;28;20154;-61
2021/10/28 08:40:14;;;;;;;2.88;2.58;;;;;;;10.30;77.58;98373.94;5050294;28;20036;-62
2021/10/28 08:42:42;;;;;;;3.42;3.00;;;;;;;10.30;77.86;98386.38;5053347;28;20421;-63
2021/10/28 08:45:09;;;;;;;4.90;3.35;;;;;;;10.39;78.45;98387.47;5052361;28;20044;-62
2021/10/28 08:47:37;;;;;;;4.15;2.97;;;;;;;10.48;77.57;98390.41;5052325;28;20090;-61
2021/10/28 08:50:07;;;;;;;6.30;3.10;;;;;;;10.55;77.12;98389.09;5054134;28;20438;-63
2021/10/28 09:25:41;;;;;;;3.58;2.40;;;;;;;11.28;75.64;98422.59;5071636;28;20092;-62
2021/10/28 09:28:35;;;;;;;3.40;2.25;;;;;;;11.32;75.65;98415.69;5055167;28;20526;-62
2021/10/28 09:31:11;;;;;;;4.43;3.00;;;;;;;11.36;75.61;98417.56;5052176;28;20040;-62
2021/10/28 09:33:58;;;;;;;5.20;2.72;;;;;;;11.33;74.94;98427.91;5062912;28;20045;-62
2021/10/28 09:51:19;;;;;;;4.32;2.63;;;;;;;11.34;74.69;98445.41;5050186;28;20052;-62
2021/10/28 09:59:28;;;;;;;3.42;2.15;;;;;;;11.36;73.73;98451.25;5043110;28;20056;-62
2021/10/28 10:02:18;;;;;;;7.18;2.50;;;;;;;11.27;74.68;98456.28;5015820;28;20045;-62
2021/10/28 10:04:43;;;;;;;5.55;3.42;;;;;;;11.29;74.79;98456.81;5045974;28;20044;-62
2021/10/28 10:07:14;;;;;;;4.53;3.05;;;;;;;11.32;74.71;98464.25;5048725;28;20415;-63
2021/10/28 10:09:39;;;;;;;6.40;3.58;;;;;;;11.41;74.68;98461.84;5049839;28;20033;-61
2021/10/28 10:12:07;;;;;;;10.57;5.18;;;;;;;11.40;74.66;98468.22;5045578;28;20048;-64
2021/10/28 10:14:34;;;;;;;7.22;4.00;;;;;;;11.46;73.84;98467.16;5069592;28;20136;-60
2021/10/28 10:17:01;;;;;;;10.93;5.22;;;;;;;11.57;73.71;98474.06;5068866;28;20052;-61
2021/10/28 10:19:44;;;;;;;5.57;3.67;;;;;;;11.65;73.55;98474.59;5067153;28;20075;-63
2021/10/28 13:02:46;;;;;;;1.10;1.00;;;;;;;9.98;71.13;98795.00;5046578;28;20354;-63
2021/10/28 13:48:12;;;;;;;2.70;1.67;;;;;;;9.61;79.04;98921.81;5052686;28;20048;-63
2021/10/28 13:49:16;;;;;;;2.20;1.48;;;;;;;9.40;80.49;98916.22;5050946;28;20143;-61
2021/10/28 14:27:14;;;;;;;1.63;1.35;;;;;;;9.02;81.61;99020.81;5054583;28;20105;-63
2021/10/28 14:29:55;;;;;;;1.40;1.30;;;;;;;9.11;80.96;99026.53;5053800;28;20477;-63
2021/10/28 15:29:39;;;;;;;1.42;1.08;;;;;;;7.96;74.69;99208.34;5046008;28;20052;-62
2021/10/28 16:22:43;;;;;;;1.20;0.90;;;;;;;7.54;72.43;99322.75;5074081;28;20051;-64
2021/10/28 16:25:10;;;;;;;0.95;0.90;;;;;;;7.45;72.92;99328.31;5074048;28;20087;-64
2021/10/28 16:27:37;;;;;;;37.22;14.38;;;;;;;7.50;73.06;99338.22;5073893;28;20505;-64
2021/10/28 16:30:04;;;;;;;2.38;1.60;;;;;;;7.46;73.08;99340.47;5073931;28;20054;-63
2021/10/28 16:32:32;;;;;;;13.65;7.63;;;;;;;7.49;73.31;99347.16;5073943;28;20126;-63
2021/10/28 16:34:58;;;;;;;8.38;3.85;;;;;;;7.48;73.16;99362.16;5073494;28;20531;-62
2021/10/28 16:37:25;;;;;;;1.63;1.42;;;;;;;7.38;72.43;99363.69;5072435;28;20052;-64
2021/10/28 16:39:52;;;;;;;71.90;45.42;;;;;;;7.38;72.54;99351.31;5073574;28;20044;-63
2021/10/28 16:42:18;;;;;;;3.42;1.83;;;;;;;7.44;71.79;99378.63;5074130;28;20049;-64
2021/10/28 16:44:45;;;;;;;18.35;10.35;;;;;;;7.40;71.75;99364.28;5073619;28;20059;-64
2021/10/28 16:47:13;;;;;;;2.88;1.92;;;;;;;7.33;71.68;99379.38;5073434;28;20049;-62
2021/10/28 16:49:39;;;;;;;2.25;1.50;;;;;;;7.36;71.80;99387.63;5072070;28;20454;-62
2021/10/28 16:52:06;;;;;;;2.90;2.08;;;;;;;7.37;72.09;99391.09;5074020;28;20048;-61
2021/10/28 16:54:33;;;;;;;2.72;1.85;;;;;;;7.38;71.83;99382.13;5073698;28;20094;-60
2021/10/28 16:57:00;;;;;;;1.40;1.30;;;;;;;7.39;70.96;99391.69;5072214;28;20087;-62
2021/10/28 16:59:27;;;;;;;2.83;1.50;;;;;;;7.36;71.40;99402.66;5039463;28;20511;-62
2021/10/28 17:01:54;;;;;;;1.92;1.40;;;;;;;7.35;71.45;99399.19;5054654;28;20131;-62
2021/10/28 17:04:21;;;;;;;2.53;1.50;;;;;;;7.27;71.08;99408.19;5055216;28;20036;-62
2021/10/28 17:06:47;;;;;;;2.75;1.50;;;;;;;7.32;70.77;99433.91;5073873;28;20105;-65
2021/10/28 17:09:16;;;;;;;3.47;1.73;;;;;;;7.31;70.84;99424.38;5072331;28;20044;-61
2021/10/28 17:11:43;;;;;;;2.10;1.77;;;;;;;7.32;70.53;99428.63;5073132;28;20080;-64
2021/10/28 17:14:09;;;;;;;3.80;1.95;;;;;;;7.34;70.68;99420.53;5071696;28;20051;-63
2021/10/28 17:16:36;;;;;;;3.30;2.10;;;;;;;7.33;70.54;99427.63;5070590;28;20039;-64
2021/10/28 17:19:04;;;;;;;4.00;1.92;;;;;;;7.33;71.05;99437.38;5035098;28;20463;-62
2021/10/28 17:21:30;;;;;;;2.42;1.98;;;;;;;7.30;71.27;99422.78;5052843;28;20487;-65
2021/10/28 17:24:09;;;;;;;3.85;2.20;;;;;;;7.22;70.05;99425.69;5052184;28;20044;-63
2021/10/28 17:26:35;;;;;;;3.80;2.40;;;;;;;7.30;70.12;99424.63;5052238;28;20056;-64
2021/10/28 17:29:04;;;;;;;3.17;2.05;;;;;;;7.26;69.66;99429.50;5051878;28;20075;-63
2021/10/28 17:31:32;;;;;;;2.88;2.40;;;;;;;7.28;69.94;99436.16;5034883;28;20609;-62
2021/10/28 17:34:01;;;;;;;3.85;2.42;;;;;;;7.33;70.20;99422.34;5051947;28;20491;-64
2021/10/28 17:36:27;;;;;;;2.83;2.20;;;;;;;7.39;69.83;99428.59;5053350;28;20049;-65
2021/10/28 17:38:53;;;;;;;3.95;2.30;;;;;;;7.34;69.70;99423.97;5059615;28;20544;-64
2021/10/28 17:41:20;;;;;;;5.65;3.25;;;;;;;7.41;70.28;99434.44;5072951;28;20051;-66
2021/10/28 17:43:54;;;;;;;6.15;2.95;;;;;;;7.46;70.18;99440.69;5072464;28;20052;-62
2021/10/28 17:46:21;;;;;;;3.72;2.60;;;;;;;7.42;70.68;99446.63;5072978;28;20041;-62
2021/10/28 17:48:49;;;;;;;3.83;2.72;;;;;;;7.47;70.77;99444.13;5072288;28;20040;-62
2021/10/28 17:51:17;;;;;;;6.70;3.40;;;;;;;7.49;70.42;99434.19;5072385;28;20358;-63
2021/10/28 17:53:44;;;;;;;3.20;2.70;;;;;;;7.42;69.47;99449.28;5072333;28;20413;-63
2021/10/28 17:56:15;;;;;;;3.30;2.58;;;;;;;7.38;68.75;99474.44;5072897;28;20093;-62
2021/10/28 17:58:41;;;;;;;2.88;2.10;;;;;;;7.40;67.79;99465.28;5072128;28;20044;-63
2021/10/28 18:01:08;;;;;;;2.45;1.95;;;;;;;7.41;67.50;99461.66;5072535;28;20083;-62
2021/10/28 18:03:34;;;;;;;2.28;1.98;;;;;;;7.37;67.68;99470.19;5054064;28;20037;-64
2021/10/28 18:06:02;;;;;;;3.65;2.50;;;;;;;7.45;68.70;99473.38;5053942;28;20055;-62
2021/10/28 18:08:28;;;;;;;3.65;2.17;;;;;;;7.44;69.21;99479.69;5040708;28;20049;-62
2021/10/28 18:10:54;;;;;;;3.60;2.50;;;;;;;7.50;68.83;99486.72;5051444;28;20128;-63
2021/10/28 18:13:21;;;;;;;2.90;2.42;;;;;;;7.54;68.84;99481.03;5050510;28;20060;-62
2021/10/28 18:15:48;;;;;;;2.78;2.13;;;;;;;7.46;68.04;99482.88;5049560;28;20051;-62
2021/10/28 18:18:15;;;;;;;2.80;2.45;;;;;;;7.51;68.35;99495.44;5033105;28;20506;-62
2021/10/28 18:20:41;;;;;;;3.58;2.13;;;;;;;7.58;68.84;99504.09;5050728;28;20090;-63
2021/10/28 18:23:07;;;;;;;2.95;2.50;;;;;;;7.59;68.84;99504.91;5051147;28;20037;-61
2021/10/28 18:25:34;;;;;;;4.88;2.63;;;;;;;7.61;68.54;99508.97;5051185;28;20525;-62
2021/10/28 18:28:01;;;;;;;3.78;2.50;;;;;;;7.67;68.96;99517.84;5033884;28;20132;-64
2021/10/28 18:30:35;;;;;;;3.63;2.72;;;;;;;7.67;68.81;99523.13;5051257;28;20095;-61
2021/10/28 18:33:02;;;;;;;5.35;2.85;;;;;;;7.68;68.98;99530.84;5051481;28;20041;-62
2021/10/28 18:35:29;;;;;;;4.40;3.15;;;;;;;7.71;69.43;99538.31;5063628;28;20498;-61
2021/10/28 18:37:55;;;;;;;4.95;3.35;;;;;;;7.70;69.78;99541.16;5071629;28;20044;-65
2021/10/28 18:40:22;;;;;;;4.53;2.90;;;;;;;7.69;69.71;99550.09;5053618;28;20048;-62
2021/10/28 18:42:49;;;;;;;7.30;3.75;;;;;;;7.69;69.75;99548.28;5071299;28;20068;-62
2021/10/28 18:45:16;;;;;;;5.25;3.50;;;;;;;7.67;69.31;99558.22;5071371;28;20162;-64
2021/10/28 18:47:45;;;;;;;4.78;3.28;;;;;;;7.63;69.96;99561.53;5071008;28;20136;-64
2021/10/28 18:50:11;;;;;;;6.65;3.78;;;;;;;7.62;70.88;99563.34;5053381;28;20551;-64
2021/10/28 18:52:38;;;;;;;6.53;3.92;;;;;;;7.60;70.94;99573.31;5071354;28;20043;-65
2021/10/28 18:55:04;;;;;;;6.30;4.60;;;;;;;7.65;70.76;99567.41;5053092;28;20075;-63
2021/10/28 18:57:31;;;;;;;6.47;3.72;;;;;;;7.65;71.11;99570.84;5071372;28;20055;-63
2021/10/28 18:59:57;;;;;;;8.20;4.32;;;;;;;7.76;70.83;99573.81;5036597;28;20047;-63
2021/10/28 19:02:26;;;;;;;7.15;4.35;;;;;;;7.81;71.21;99569.50;5052803;28;20127;-62
2021/10/28 19:04:52;;;;;;;9.20;4.85;;;;;;;7.73;71.28;99577.66;5071236;28;20036;-64
2021/10/28 19:07:19;;;;;;;8.25;4.20;;;;;;;7.78;71.81;99569.94;5071183;28;20131;-64
2021/10/28 19:09:46;;;;;;;9.23;4.30;;;;;;;7.74;71.36;99577.47;5032360;28;20093;-67
2021/10/28 19:12:12;;;;;;;6.30;4.03;;;;;;;7.76;70.99;99584.34;5050814;28;20107;-64
2021/10/28 19:14:43;;;;;;;6.60;4.10;;;;;;;7.71;71.56;99585.81;5051355;28;20110;-65
2021/10/28 19:17:11;;;;;;;7.72;4.28;;;;;;;7.65;72.75;99589.31;5063362;28;20072;-65
2021/10/28 19:19:38;;;;;;;7.47;4.10;;;;;;;7.66;72.03;99587.47;5024667;28;20064;-64
2021/10/28 19:22:05;;;;;;;8.52;3.80;;;;;;;7.71;72.63;99587.66;5034765;28;20037;-64
2021/10/28 19:24:32;;;;;;;7.40;4.13;;;;;;;7.66;72.16;99590.91;5050053;28;20471;-64
2021/10/28 19:26:58;;;;;;;15.65;7.97;;;;;;;7.73;72.57;99602.25;5050656;28;20052;-64
2021/10/28 19:29:26;;;;;;;7.85;4.13;;;;;;;7.83;72.11;99603.59;5050882;28;20037;-62
2021/10/28 19:32:00;;;;;;;9.38;5.10;;;;;;;7.71;71.75;99609.56;5045167;28;20505;-62
2021/10/28 19:34:33;;;;;;;10.57;6.18;;;;;;;7.67;71.82;99608.34;5053046;28;20517;-62
2021/10/28 19:37:06;;;;;;;10.55;5.38;;;;;;;7.73;71.89;99609.34;5054277;28;20071;-62
2021/10/28 19:46:08;;;;;;;10.73;6.13;;;;;;;7.76;71.88;99616.03;5049484;28;20044;-62
2021/10/28 19:48:18;;;;;;;10.88;6.15;;;;;;;7.80;71.47;99614.59;5049084;28;20086;-61
2021/10/28 19:50:45;;;;;;;14.27;6.70;;;;;;;7.82;71.17;99615.16;5047200;28;20094;-62
2021/10/28 19:53:12;;;;;;;13.80;7.35;;;;;;;7.81;71.16;99624.91;5049810;28;20120;-61
2021/10/28 19:55:42;;;;;;;12.88;6.57;;;;;;;7.91;70.29;99627.06;5049738;28;20041;-62
2021/10/28 19:58:13;;;;;;;;;;;;;;;7.93;70.30;99614.47;5030776;28;20045;-62
2021/10/28 20:00:48;;;;;;;16.10;7.53;;;;;;;7.96;69.88;99616.69;5049639;28;19935;-62
2021/10/28 20:21:51;;;;;;;14.10;6.72;;;;;;;7.95;69.93;99647.56;5070101;28;20053;-61
2021/10/28 20:24:19;;;;;;;12.55;6.45;;;;;;;7.94;69.68;99645.13;5070299;28;20036;-61
2021/10/28 20:26:44;;;;;;;12.48;5.90;;;;;;;7.84;70.17;99644.81;5070011;28;20553;-62
2021/10/28 20:29:11;;;;;;;11.52;5.60;;;;;;;7.85;70.32;99647.25;5070147;28;20036;-59
2021/10/28 20:31:38;;;;;;;12.10;6.30;;;;;;;7.85;70.26;99655.16;4975781;28;20495;-60
2021/10/28 20:39:17;;;;;;;13.48;5.88;;;;;;;7.89;70.97;99652.91;5072883;28;20099;-61
2021/10/28 20:41:46;;;;;;;12.98;7.35;;;;;;;7.89;71.01;99648.41;5074032;28;20090;-60
2021/10/28 20:44:15;;;;;;;12.82;6.43;;;;;;;7.93;70.33;99649.59;5073874;28;20090;-62
2021/10/28 20:46:42;;;;;;;12.52;6.13;;;;;;;7.97;69.81;99655.25;5073820;28;20052;-62
2021/10/28 20:49:08;;;;;;;17.90;6.40;;;;;;;7.89;70.07;99660.81;5072738;28;20045;-61
2021/10/28 20:51:35;;;;;;;16.80;6.28;;;;;;;7.90;70.34;99657.94;5074362;28;20041;-62
2021/10/28 20:54:02;;;;;;;13.85;6.68;;;;;;;7.93;70.22;99656.72;5073885;28;20055;-62
2021/10/28 20:56:28;;;;;;;13.65;6.88;;;;;;;7.96;70.26;99664.22;5056022;28;20041;-62
2021/10/28 20:58:54;;;;;;;14.02;6.97;;;;;;;7.99;69.96;99662.97;5074144;28;20041;-62
2021/10/28 21:01:23;;;;;;;11.85;6.50;;;;;;;8.07;70.08;99668.00;5072477;28;20079;-61
2021/10/28 21:03:52;;;;;;;12.15;5.95;;;;;;;8.17;69.53;99676.25;5056346;28;20052;-60
2021/10/28 21:06:19;;;;;;;13.15;6.72;;;;;;;8.20;70.32;99681.09;5073934;28;20140;-61
2021/10/28 21:08:46;;;;;;;13.05;6.63;;;;;;;8.22;69.96;99671.13;5073762;28;20119;-63
2021/10/28 21:11:12;;;;;;;14.88;6.57;;;;;;;8.13;70.11;99683.00;5055577;28;20073;-61
2021/10/28 21:13:38;;;;;;;12.60;6.20;;;;;;;8.17;69.47;99687.59;5073903;28;20414;-63
2021/10/28 21:16:05;;;;;;;12.57;6.45;;;;;;;8.05;68.66;99693.81;5073707;28;20048;-61